createdAt,value
2019-02-09T00:00:46.934Z,28.03
2019-02-09T00:01:46.938Z,27.93
2019-02-09T00:02:46.945Z,27.83
2019-02-09T00:03:46.949Z,27.83
2019-02-09T00:04:46.976Z,28.03
2019-02-09T00:05:46.962Z,28.03
2019-02-09T00:06:46.967Z,28.22
2019-02-09T00:07:46.972Z,28.22
2019-02-09T00:08:46.977Z,27.93
2019-02-09T00:09:46.984Z,28.13
2019-02-09T00:10:46.988Z,27.93
2019-02-09T00:11:46.994Z,28.03
2019-02-09T00:12:47.001Z,27.93
2019-02-09T00:13:47.005Z,27.93
2019-02-09T00:14:47.013Z,27.93
2019-02-09T00:15:47.016Z,27.83
2019-02-09T00:16:47.023Z,27.45
2019-02-09T00:17:47.027Z,28.03
2019-02-09T00:18:47.031Z,28.13
2019-02-09T00:19:47.036Z,28.03
2019-02-09T00:20:47.047Z,27.83
2019-02-09T00:21:47.048Z,27.74
2019-02-09T00:22:47.054Z,27.55
2019-02-09T00:23:47.059Z,27.93
2019-02-09T00:24:47.066Z,28.03
2019-02-09T00:25:47.071Z,27.74
2019-02-09T00:26:47.077Z,27.93
2019-02-09T00:27:47.617Z,27.45
2019-02-09T00:28:47.090Z,27.55
2019-02-09T00:29:47.093Z,27.45
2019-02-09T00:30:47.099Z,27.55
2019-02-09T00:31:47.102Z,27.93
2019-02-09T00:32:47.136Z,27.93
2019-02-09T00:33:47.114Z,27.83
2019-02-09T00:34:47.118Z,27.55
2019-02-09T00:35:47.124Z,27.74
2019-02-09T00:36:47.131Z,27.55
2019-02-09T00:37:47.135Z,27.64
2019-02-09T00:38:47.141Z,27.45
2019-02-09T00:39:47.156Z,27.64
2019-02-09T00:40:47.152Z,27.35
2019-02-09T00:41:47.158Z,27.64
2019-02-09T00:42:47.164Z,27.74
2019-02-09T00:43:47.168Z,27.45
2019-02-09T00:44:47.174Z,27.55
2019-02-09T00:45:47.213Z,27.74
2019-02-09T00:46:47.187Z,27.64
2019-02-09T00:47:47.188Z,27.74
2019-02-09T00:48:47.196Z,27.93
2019-02-09T00:49:47.200Z,27.74
2019-02-09T00:50:47.208Z,27.74
2019-02-09T00:51:47.212Z,27.64
2019-02-09T00:52:47.217Z,27.74
2019-02-09T00:53:48.175Z,27.35
2019-02-09T00:54:47.230Z,27.45
2019-02-09T00:55:47.235Z,27.64
2019-02-09T00:56:47.242Z,27.64
2019-02-09T00:57:47.244Z,27.83
2019-02-09T00:58:47.264Z,27.83
2019-02-09T00:59:54.063Z,27.74
2019-02-09T01:00:47.279Z,27.55
2019-02-09T01:01:47.267Z,27.64
2019-02-09T01:02:47.273Z,27.55
2019-02-09T01:03:47.292Z,27.74
2019-02-09T01:04:47.282Z,27.64
2019-02-09T01:05:47.289Z,27.55
2019-02-09T01:06:47.296Z,27.35
2019-02-09T01:07:47.300Z,27.45
2019-02-09T01:08:47.305Z,27.55
2019-02-09T01:09:47.312Z,27.55
2019-02-09T01:10:47.315Z,27.35
2019-02-09T01:11:47.328Z,27.35
2019-02-09T01:12:47.327Z,27.35
2019-02-09T01:13:47.335Z,27.45
2019-02-09T01:14:47.338Z,27.45
2019-02-09T01:15:47.345Z,27.74
2019-02-09T01:16:47.349Z,27.45
2019-02-09T01:17:47.356Z,27.16
2019-02-09T01:18:47.358Z,27.26
2019-02-09T01:19:47.363Z,27.64
2019-02-09T01:20:47.370Z,27.45
2019-02-09T01:21:47.375Z,27.74
2019-02-09T01:22:47.382Z,27.64
2019-02-09T01:23:47.386Z,27.83
2019-02-09T01:24:47.393Z,27.93
2019-02-09T01:25:47.396Z,27.55
2019-02-09T01:26:47.403Z,27.55
2019-02-09T01:27:47.408Z,27.93
2019-02-09T01:28:47.413Z,27.45
2019-02-09T01:29:47.420Z,27.35
2019-02-09T01:30:47.423Z,27.93
2019-02-09T01:31:47.434Z,27.74
2019-02-09T01:32:47.437Z,27.74
2019-02-09T01:33:47.447Z,27.55
2019-02-09T01:34:47.445Z,27.55
2019-02-09T01:35:47.450Z,27.64
2019-02-09T01:36:47.457Z,27.45
2019-02-09T01:37:47.462Z,27.64
2019-02-09T01:38:47.467Z,27.45
2019-02-09T01:39:47.471Z,27.35
2019-02-09T01:40:47.477Z,27.45
2019-02-09T01:41:47.483Z,27.64
2019-02-09T01:42:47.490Z,27.55
2019-02-09T01:43:47.493Z,27.45
2019-02-09T01:44:47.505Z,27.35
2019-02-09T01:45:47.504Z,27.35
2019-02-09T01:46:47.513Z,27.45
2019-02-09T01:47:47.517Z,27.45
2019-02-09T01:48:47.537Z,27.45
2019-02-09T01:49:47.530Z,27.55
2019-02-09T01:50:47.533Z,27.35
2019-02-09T01:51:47.539Z,27.55
2019-02-09T01:52:47.547Z,27.74
2019-02-09T01:53:47.549Z,27.64
2019-02-09T01:54:47.555Z,27.55
2019-02-09T01:55:47.560Z,27.06
2019-02-09T01:56:47.565Z,27.45
2019-02-09T01:57:47.571Z,27.35
2019-02-09T01:58:47.575Z,27.45
2019-02-09T01:59:47.594Z,27.55
2019-02-09T02:00:47.600Z,27.74
2019-02-09T02:01:47.591Z,27.83
2019-02-09T02:02:47.597Z,27.62
2019-02-09T02:03:47.603Z,27.64
2019-02-09T02:04:47.607Z,27.45
2019-02-09T02:05:47.615Z,27.45
2019-02-09T02:06:47.619Z,27.74
2019-02-09T02:07:47.625Z,27.45
2019-02-09T02:08:47.629Z,27.64
2019-02-09T02:09:47.636Z,27.45
2019-02-09T02:10:47.640Z,27.74
2019-02-09T02:11:47.646Z,27.83
2019-02-09T02:12:47.652Z,27.74
2019-02-09T02:13:47.658Z,27.55
2019-02-09T02:14:47.661Z,27.55
2019-02-09T02:15:47.670Z,27.45
2019-02-09T02:16:47.672Z,27.35
2019-02-09T02:17:47.681Z,27.55
2019-02-09T02:18:47.689Z,27.45
2019-02-09T02:19:47.691Z,27.35
2019-02-09T02:20:47.695Z,27.83
2019-02-09T02:21:47.701Z,27.55
2019-02-09T02:22:47.733Z,27.64
2019-02-09T02:23:47.716Z,27.55
2019-02-09T02:24:47.719Z,27.55
2019-02-09T02:25:47.722Z,27.64
2019-02-09T02:26:47.729Z,27.55
2019-02-09T02:27:47.734Z,27.55
2019-02-09T02:28:47.738Z,27.83
2019-02-09T02:29:47.744Z,27.55
2019-02-09T02:30:47.750Z,27.35
2019-02-09T02:31:47.753Z,27.64
2019-02-09T02:32:47.761Z,27.74
2019-02-09T02:33:47.793Z,27.26
2019-02-09T02:34:47.771Z,27.45
2019-02-09T02:35:47.783Z,27.55
2019-02-09T02:36:47.781Z,27.64
2019-02-09T02:37:47.786Z,27.35
2019-02-09T02:38:47.793Z,27.45
2019-02-09T02:39:47.796Z,27.35
2019-02-09T02:40:47.803Z,27.55
2019-02-09T02:41:47.809Z,27.45
2019-02-09T02:42:47.814Z,27.45
2019-02-09T02:43:47.819Z,27.45
2019-02-09T02:44:47.823Z,27.45
2019-02-09T02:45:47.831Z,27.45
2019-02-09T02:46:47.836Z,27.64
2019-02-09T02:47:47.847Z,27.55
2019-02-09T02:48:47.849Z,27.74
2019-02-09T02:49:47.853Z,27.35
2019-02-09T02:50:47.863Z,27.55
2019-02-09T02:51:47.870Z,27.35
2019-02-09T02:52:47.869Z,27.55
2019-02-09T02:53:47.875Z,27.35
2019-02-09T02:54:47.879Z,27.26
2019-02-09T02:55:47.883Z,27.06
2019-02-09T02:56:47.902Z,27.16
2019-02-09T02:57:47.896Z,27.26
2019-02-09T02:58:47.899Z,27.45
2019-02-09T02:59:47.907Z,27.35
2019-02-09T03:00:47.911Z,27.45
2019-02-09T03:01:47.917Z,27.55
2019-02-09T03:02:47.926Z,27.45
2019-02-09T03:03:47.935Z,27.45
2019-02-09T03:04:47.935Z,27.35
2019-02-09T03:05:47.947Z,27.45
2019-02-09T03:06:47.995Z,27.35
2019-02-09T03:07:47.948Z,27.35
2019-02-09T03:08:47.953Z,27.35
2019-02-09T03:09:47.961Z,27.26
2019-02-09T03:10:47.967Z,26.97
2019-02-09T03:11:48.149Z,27.26
2019-02-09T03:12:47.984Z,27.16
2019-02-09T03:13:47.980Z,27.55
2019-02-09T03:14:47.988Z,27.55
2019-02-09T03:15:47.990Z,27.35
2019-02-09T03:16:48.007Z,27.64
2019-02-09T03:17:48.004Z,27.35
2019-02-09T03:18:48.010Z,26.87
2019-02-09T03:19:48.013Z,26.97
2019-02-09T03:20:48.018Z,26.97
2019-02-09T03:21:48.024Z,27.35
2019-02-09T03:22:48.029Z,27.26
2019-02-09T03:23:48.037Z,27.45
2019-02-09T03:24:48.039Z,27.35
2019-02-09T03:25:48.046Z,27.35
2019-02-09T03:26:48.051Z,27.35
2019-02-09T03:27:48.056Z,27.55
2019-02-09T03:28:48.061Z,27.06
2019-02-09T03:29:48.068Z,26.97
2019-02-09T03:30:49.136Z,27.16
2019-02-09T03:31:48.079Z,27.06
2019-02-09T03:32:48.085Z,27.06
2019-02-09T03:33:48.093Z,27.16
2019-02-09T03:34:48.145Z,27.06
2019-02-09T03:35:48.099Z,27.06
2019-02-09T03:36:48.105Z,27.06
2019-02-09T03:37:48.110Z,27.16
2019-02-09T03:38:48.118Z,27.35
2019-02-09T03:39:48.123Z,26.87
2019-02-09T03:40:48.126Z,26.87
2019-02-09T03:41:48.131Z,27.26
2019-02-09T03:42:48.137Z,27.26
2019-02-09T03:43:48.142Z,27.06
2019-02-09T03:44:48.151Z,26.87
2019-02-09T03:45:48.153Z,27.16
2019-02-09T03:46:48.158Z,27.26
2019-02-09T03:47:48.169Z,26.97
2019-02-09T03:48:48.179Z,26.97
2019-02-09T03:49:48.175Z,26.97
2019-02-09T03:50:48.182Z,27.16
2019-02-09T03:51:48.184Z,26.87
2019-02-09T03:52:48.195Z,26.97
2019-02-09T03:53:48.197Z,26.97
2019-02-09T03:54:48.201Z,27.16
2019-02-09T03:55:48.207Z,27.06
2019-02-09T03:56:48.213Z,27.16
2019-02-09T03:57:48.217Z,26.78
2019-02-09T03:58:48.225Z,27.26
2019-02-09T03:59:48.232Z,27.16
2019-02-09T04:00:55.192Z,26.97
2019-02-09T04:01:48.242Z,27.16
2019-02-09T04:02:48.245Z,27.06
2019-02-09T04:03:48.250Z,26.78
2019-02-09T04:04:48.255Z,26.97
2019-02-09T04:05:48.262Z,27.06
2019-02-09T04:06:48.266Z,26.97
2019-02-09T04:07:48.285Z,26.87
2019-02-09T04:08:48.277Z,26.68
2019-02-09T04:09:48.283Z,27.16
2019-02-09T04:10:48.287Z,27.06
2019-02-09T04:11:48.292Z,26.68
2019-02-09T04:12:48.298Z,27.26
2019-02-09T04:13:48.303Z,27.16
2019-02-09T04:14:48.308Z,27.06
2019-02-09T04:15:48.312Z,26.78
2019-02-09T04:16:48.340Z,27.16
2019-02-09T04:17:48.324Z,26.97
2019-02-09T04:18:48.333Z,26.97
2019-02-09T04:19:48.335Z,27.06
2019-02-09T04:20:48.342Z,26.97
2019-02-09T04:21:48.347Z,26.87
2019-02-09T04:22:48.353Z,26.58
2019-02-09T04:23:48.356Z,26.87
2019-02-09T04:24:48.364Z,27.16
2019-02-09T04:25:48.368Z,27.06
2019-02-09T04:26:48.373Z,26.97
2019-02-09T04:27:48.379Z,27.06
2019-02-09T04:28:48.384Z,26.97
2019-02-09T04:29:48.390Z,27.06
2019-02-09T04:30:48.399Z,26.87
2019-02-09T04:31:48.403Z,26.68
2019-02-09T04:32:48.405Z,26.68
2019-02-09T04:33:48.410Z,26.68
2019-02-09T04:34:48.499Z,27.16
2019-02-09T04:35:48.421Z,26.68
2019-02-09T04:36:48.431Z,27.16
2019-02-09T04:37:48.433Z,27.06
2019-02-09T04:38:48.440Z,26.58
2019-02-09T04:39:48.445Z,26.97
2019-02-09T04:40:48.447Z,26.78
2019-02-09T04:41:48.454Z,26.68
2019-02-09T04:42:48.460Z,26.48
2019-02-09T04:43:48.465Z,26.68
2019-02-09T04:44:48.470Z,26.68
2019-02-09T04:45:48.480Z,26.58
2019-02-09T04:46:48.482Z,26.68
2019-02-09T04:47:48.486Z,26.58
2019-02-09T04:48:48.491Z,26.68
2019-02-09T04:49:48.496Z,26.78
2019-02-09T04:50:48.503Z,26.58
2019-02-09T04:51:48.507Z,26.78
2019-02-09T04:52:48.513Z,26.87
2019-02-09T04:53:48.523Z,26.78
2019-02-09T04:54:48.525Z,26.78
2019-02-09T04:55:48.529Z,26.87
2019-02-09T04:56:48.533Z,26.39
2019-02-09T04:57:48.541Z,26.78
2019-02-09T04:58:48.548Z,26.48
2019-02-09T04:59:48.551Z,26.87
2019-02-09T05:00:48.557Z,27.16
2019-02-09T05:01:48.561Z,27.06
2019-02-09T05:02:48.569Z,26.97
2019-02-09T05:03:48.571Z,26.87
2019-02-09T05:04:48.578Z,26.58
2019-02-09T05:05:48.647Z,26.78
2019-02-09T05:06:48.587Z,26.68
2019-02-09T05:07:48.597Z,26.78
2019-02-09T05:08:48.597Z,26.78
2019-02-09T05:09:48.605Z,26.78
2019-02-09T05:10:48.609Z,26.97
2019-02-09T05:11:48.613Z,27.16
2019-02-09T05:12:48.622Z,26.58
2019-02-09T05:13:48.624Z,27.06
2019-02-09T05:14:48.634Z,27.16
2019-02-09T05:15:48.636Z,27.16
2019-02-09T05:16:48.641Z,27.06
2019-02-09T05:17:48.647Z,27.16
2019-02-09T05:18:48.652Z,26.78
2019-02-09T05:19:48.657Z,26.58
2019-02-09T05:20:48.661Z,26.78
2019-02-09T05:21:48.675Z,26.87
2019-02-09T05:22:48.674Z,26.97
2019-02-09T05:23:48.682Z,27.26
2019-02-09T05:24:48.685Z,26.97
2019-02-09T05:25:48.690Z,26.68
2019-02-09T05:26:48.696Z,26.58
2019-02-09T05:27:48.700Z,26.97
2019-02-09T05:28:48.707Z,27.06
2019-02-09T05:29:48.712Z,26.78
2019-02-09T05:30:48.718Z,26.78
2019-02-09T05:31:48.736Z,27.06
2019-02-09T05:32:48.728Z,27.05
2019-02-09T05:33:48.732Z,26.97
2019-02-09T05:34:48.738Z,27.06
2019-02-09T05:35:48.743Z,26.68
2019-02-09T05:36:48.748Z,26.78
2019-02-09T05:37:48.753Z,26.87
2019-02-09T05:38:48.765Z,26.78
2019-02-09T05:39:48.811Z,26.58
2019-02-09T05:40:48.783Z,26.87
2019-02-09T05:41:48.776Z,26.58
2019-02-09T05:42:48.779Z,26.87
2019-02-09T05:43:48.785Z,26.87
2019-02-09T05:44:48.790Z,26.87
2019-02-09T05:45:48.799Z,26.87
2019-02-09T05:46:48.801Z,26.68
2019-02-09T05:47:48.807Z,27.06
2019-02-09T05:48:48.813Z,26.87
2019-02-09T05:49:48.819Z,27.26
2019-02-09T05:50:48.829Z,27.06
2019-02-09T05:51:48.834Z,27.16
2019-02-09T05:52:48.839Z,27.06
2019-02-09T05:53:48.842Z,27.26
2019-02-09T05:54:48.844Z,26.68
2019-02-09T05:55:48.850Z,26.68
2019-02-09T05:56:48.855Z,26.97
2019-02-09T05:57:48.861Z,26.78
2019-02-09T05:58:48.872Z,26.97
2019-02-09T05:59:48.873Z,26.78
2019-02-09T06:00:48.882Z,26.78
2019-02-09T06:01:48.884Z,26.78
2019-02-09T06:02:48.940Z,26.87
2019-02-09T06:03:48.894Z,26.87
2019-02-09T06:04:48.898Z,26.87
2019-02-09T06:05:48.903Z,26.97
2019-02-09T06:06:48.908Z,27.06
2019-02-09T06:07:48.919Z,26.87
2019-02-09T06:08:48.921Z,26.78
2019-02-09T06:09:48.926Z,26.78
2019-02-09T06:10:48.932Z,27.26
2019-02-09T06:11:48.952Z,26.68
2019-02-09T06:12:48.941Z,26.78
2019-02-09T06:13:48.958Z,26.68
2019-02-09T06:14:48.952Z,26.97
2019-02-09T06:15:48.957Z,26.58
2019-02-09T06:16:48.963Z,26.48
2019-02-09T06:17:48.967Z,26.97
2019-02-09T06:18:48.973Z,26.87
2019-02-09T06:19:48.977Z,27.06
2019-02-09T06:20:48.984Z,27.26
2019-02-09T06:21:48.988Z,26.87
2019-02-09T06:22:48.995Z,27.06
2019-02-09T06:23:49.001Z,26.78
2019-02-09T06:24:49.006Z,26.58
2019-02-09T06:25:49.009Z,26.29
2019-02-09T06:26:49.017Z,26.68
2019-02-09T06:27:49.039Z,26.39
2019-02-09T06:28:49.025Z,26.58
2019-02-09T06:29:49.032Z,26.58
2019-02-09T06:30:49.036Z,26.68
2019-02-09T06:31:49.041Z,26.78
2019-02-09T06:32:49.049Z,26.48
2019-02-09T06:33:49.054Z,26.78
2019-02-09T06:34:49.059Z,26.10
2019-02-09T06:35:49.062Z,26.58
2019-02-09T06:36:49.073Z,26.29
2019-02-09T06:37:49.075Z,26.39
2019-02-09T06:38:49.090Z,26.39
2019-02-09T06:39:49.085Z,26.39
2019-02-09T06:40:49.093Z,26.39
2019-02-09T06:41:49.097Z,26.58
2019-02-09T06:42:49.101Z,26.39
2019-02-09T06:43:49.108Z,26.29
2019-02-09T06:44:49.114Z,26.48
2019-02-09T06:45:49.126Z,26.58
2019-02-09T06:46:49.147Z,26.48
2019-02-09T06:47:49.127Z,26.48
2019-02-09T06:48:49.135Z,26.48
2019-02-09T06:49:49.139Z,26.29
2019-02-09T06:50:49.143Z,26.20
2019-02-09T06:51:49.149Z,26.20
2019-02-09T06:52:49.156Z,26.20
2019-02-09T06:53:49.162Z,26.29
2019-02-09T06:54:49.168Z,26.39
2019-02-09T06:55:49.171Z,26.29
2019-02-09T06:56:49.177Z,26.20
2019-02-09T06:57:49.182Z,26.20
2019-02-09T06:58:49.188Z,26.29
2019-02-09T06:59:49.192Z,26.29
2019-02-09T07:00:49.198Z,26.29
2019-02-09T07:01:49.204Z,26.40
2019-02-09T07:02:49.209Z,26.29
2019-02-09T07:03:49.222Z,26.20
2019-02-09T07:04:49.219Z,26.40
2019-02-09T07:05:49.225Z,26.29
2019-02-09T07:06:49.231Z,26.21
2019-02-09T07:07:49.238Z,26.31
2019-02-09T07:08:49.241Z,26.40
2019-02-09T07:09:49.246Z,26.39
2019-02-09T07:10:49.252Z,26.29
2019-02-09T07:11:49.258Z,26.48
2019-02-09T07:12:49.278Z,26.58
2019-02-09T07:13:49.267Z,26.48
2019-02-09T07:14:49.274Z,26.68
2019-02-09T07:15:49.279Z,26.68
2019-02-09T07:16:49.284Z,26.68
2019-02-09T07:17:49.291Z,26.48
2019-02-09T07:18:49.295Z,26.58
2019-02-09T07:19:49.301Z,26.68
2019-02-09T07:20:49.306Z,26.79
2019-02-09T07:21:49.311Z,26.69
2019-02-09T07:22:49.318Z,26.79
2019-02-09T07:23:49.324Z,26.59
2019-02-09T07:24:49.538Z,27.16
2019-02-09T07:25:49.337Z,27.17
2019-02-09T07:26:49.339Z,27.08
2019-02-09T07:27:49.363Z,26.78
2019-02-09T07:28:49.351Z,26.79
2019-02-09T07:29:49.355Z,26.78
2019-02-09T07:30:49.362Z,27.08
2019-02-09T07:31:56.214Z,27.17
2019-02-09T07:32:49.372Z,27.35
2019-02-09T07:33:49.378Z,27.17
2019-02-09T07:34:49.385Z,27.16
2019-02-09T07:35:49.388Z,27.06
2019-02-09T07:36:49.394Z,26.98
2019-02-09T07:37:49.401Z,27.08
2019-02-09T07:38:49.409Z,27.06
2019-02-09T07:39:49.409Z,26.89
2019-02-09T07:40:49.625Z,26.79
2019-02-09T07:41:49.422Z,26.98
2019-02-09T07:42:49.430Z,27.55
2019-02-09T07:43:49.434Z,27.37
2019-02-09T07:44:49.437Z,27.27
2019-02-09T07:45:49.443Z,27.06
2019-02-09T07:46:49.450Z,27.45
2019-02-09T07:47:49.454Z,26.98
2019-02-09T07:48:49.461Z,27.16
2019-02-09T07:49:49.465Z,27.27
2019-02-09T07:50:49.470Z,26.98
2019-02-09T07:51:49.477Z,27.08
2019-02-09T07:52:49.487Z,26.89
2019-02-09T07:53:49.495Z,26.78
2019-02-09T07:54:49.494Z,26.89
2019-02-09T07:55:49.497Z,26.78
2019-02-09T07:56:49.503Z,26.59
2019-02-09T07:57:49.509Z,26.59
2019-02-09T07:58:49.514Z,26.69
2019-02-09T07:59:49.518Z,26.87
2019-02-09T08:00:49.525Z,26.78
2019-02-09T08:01:49.531Z,26.78
2019-02-09T08:02:49.536Z,26.69
2019-02-09T08:03:49.542Z,26.89
2019-02-09T08:04:49.546Z,26.69
2019-02-09T08:05:49.551Z,26.78
2019-02-09T08:06:49.560Z,26.79
2019-02-09T08:07:49.563Z,26.48
2019-02-09T08:08:49.569Z,26.68
2019-02-09T08:09:49.574Z,26.58
2019-02-09T08:10:49.579Z,26.40
2019-02-09T08:11:49.585Z,26.58
2019-02-09T08:12:49.590Z,26.50
2019-02-09T08:13:49.596Z,26.58
2019-02-09T08:14:49.603Z,26.50
2019-02-09T08:15:49.661Z,26.50
2019-02-09T08:16:49.613Z,26.58
2019-02-09T08:17:49.618Z,26.39
2019-02-09T08:18:49.623Z,26.50
2019-02-09T08:19:49.627Z,26.69
2019-02-09T08:20:49.637Z,26.29
2019-02-09T08:21:49.642Z,26.40
2019-02-09T08:22:49.648Z,26.48
2019-02-09T08:23:49.650Z,26.50
2019-02-09T08:24:49.659Z,26.48
2019-02-09T08:25:49.662Z,26.31
2019-02-09T08:26:49.668Z,26.29
2019-02-09T08:27:49.671Z,26.10
2019-02-09T08:28:49.677Z,26.40
2019-02-09T08:29:49.684Z,26.39
2019-02-09T08:30:49.689Z,26.39
2019-02-09T08:31:49.739Z,26.40
2019-02-09T08:32:49.700Z,26.21
2019-02-09T08:33:49.705Z,26.10
2019-02-09T08:34:49.710Z,26.20
2019-02-09T08:35:49.715Z,26.29
2019-02-09T08:36:49.722Z,26.29
2019-02-09T08:37:49.727Z,26.20
2019-02-09T08:38:49.736Z,26.20
2019-02-09T08:39:49.738Z,26.29
2019-02-09T08:40:49.745Z,26.31
2019-02-09T08:41:49.749Z,26.31
2019-02-09T08:42:49.754Z,26.11
2019-02-09T08:43:49.760Z,26.31
2019-02-09T08:44:49.769Z,26.31
2019-02-09T08:45:49.771Z,26.31
2019-02-09T08:46:49.778Z,26.31
2019-02-09T08:47:49.782Z,26.21
2019-02-09T08:48:49.793Z,26.29
2019-02-09T08:49:49.794Z,26.29
2019-02-09T08:50:49.798Z,26.29
2019-02-09T08:51:49.802Z,26.31
2019-02-09T08:52:49.810Z,26.20
2019-02-09T08:53:49.819Z,26.29
2019-02-09T08:54:49.823Z,26.20
2019-02-09T08:55:49.826Z,26.10
2019-02-09T08:56:49.832Z,26.31
2019-02-09T08:57:49.836Z,26.31
2019-02-09T08:58:49.844Z,26.29
2019-02-09T08:59:49.849Z,26.50
2019-02-09T09:00:49.853Z,26.40
2019-02-09T09:01:49.859Z,26.40
2019-02-09T09:02:49.865Z,25.81
2019-02-09T09:03:49.869Z,26.00
2019-02-09T09:04:49.875Z,25.91
2019-02-09T09:05:49.883Z,26.29
2019-02-09T09:06:49.887Z,25.91
2019-02-09T09:07:49.891Z,25.92
2019-02-09T09:08:49.899Z,25.91
2019-02-09T09:09:49.902Z,26.39
2019-02-09T09:10:49.909Z,25.91
2019-02-09T09:11:49.912Z,25.91
2019-02-09T09:12:49.918Z,25.91
2019-02-09T09:13:49.924Z,25.81
2019-02-09T09:14:49.952Z,25.91
2019-02-09T09:15:49.934Z,25.92
2019-02-09T09:16:49.944Z,25.82
2019-02-09T09:17:49.946Z,25.63
2019-02-09T09:18:49.954Z,25.81
2019-02-09T09:19:49.970Z,25.63
2019-02-09T09:20:49.964Z,26.21
2019-02-09T09:21:49.968Z,26.29
2019-02-09T09:22:49.974Z,26.40
2019-02-09T09:23:49.978Z,25.82
2019-02-09T09:24:49.985Z,25.71
2019-02-09T09:25:49.989Z,25.92
2019-02-09T09:26:49.997Z,26.00
2019-02-09T09:27:50.003Z,26.21
2019-02-09T09:28:50.007Z,25.92
2019-02-09T09:29:50.013Z,25.73
2019-02-09T09:30:50.018Z,25.54
2019-02-09T09:31:50.021Z,25.62
2019-02-09T09:32:50.029Z,25.73
2019-02-09T09:33:50.035Z,25.71
2019-02-09T09:34:50.040Z,25.73
2019-02-09T09:35:50.046Z,25.62
2019-02-09T09:36:50.050Z,25.63
2019-02-09T09:37:50.056Z,25.91
2019-02-09T09:38:50.061Z,25.92
2019-02-09T09:39:50.067Z,26.31
2019-02-09T09:40:50.072Z,26.02
2019-02-09T09:41:50.078Z,25.73
2019-02-09T09:42:50.087Z,25.73
2019-02-09T09:43:50.090Z,25.73
2019-02-09T09:44:50.095Z,25.62
2019-02-09T09:45:50.099Z,25.62
2019-02-09T09:46:50.105Z,25.44
2019-02-09T09:47:50.110Z,25.54
2019-02-09T09:48:50.115Z,25.63
2019-02-09T09:49:50.152Z,25.63
2019-02-09T09:50:50.128Z,25.62
2019-02-09T09:51:50.132Z,25.44
2019-02-09T09:52:50.137Z,25.62
2019-02-09T09:53:50.144Z,25.33
2019-02-09T09:54:50.151Z,25.52
2019-02-09T09:55:50.152Z,25.62
2019-02-09T09:56:50.159Z,25.44
2019-02-09T09:57:50.165Z,25.54
2019-02-09T09:58:50.169Z,25.52
2019-02-09T09:59:50.174Z,25.43
2019-02-09T10:00:50.180Z,25.54
2019-02-09T10:01:50.187Z,25.33
2019-02-09T10:02:50.193Z,25.33
2019-02-09T10:03:50.215Z,25.34
2019-02-09T10:04:50.202Z,25.82
2019-02-09T10:05:50.209Z,25.62
2019-02-09T10:06:50.214Z,25.91
2019-02-09T10:07:50.219Z,25.54
2019-02-09T10:08:50.227Z,25.73
2019-02-09T10:09:50.230Z,25.71
2019-02-09T10:10:50.235Z,25.52
2019-02-09T10:11:50.241Z,25.52
2019-02-09T10:12:50.247Z,25.44
2019-02-09T10:13:50.253Z,25.73
2019-02-09T10:14:50.258Z,26.20
2019-02-09T10:15:50.263Z,25.54
2019-02-09T10:16:50.269Z,25.73
2019-02-09T10:17:50.274Z,25.82
2019-02-09T10:18:50.280Z,25.63
2019-02-09T10:19:50.285Z,25.54
2019-02-09T10:20:50.291Z,25.82
2019-02-09T10:21:50.296Z,25.73
2019-02-09T10:22:50.301Z,25.71
2019-02-09T10:23:50.310Z,25.63
2019-02-09T10:24:50.312Z,26.21
2019-02-09T10:25:50.316Z,25.82
2019-02-09T10:26:50.327Z,26.40
2019-02-09T10:27:50.331Z,26.31
2019-02-09T10:28:50.334Z,26.40
2019-02-09T10:29:50.340Z,25.92
2019-02-09T10:30:50.345Z,26.40
2019-02-09T10:31:50.349Z,26.31
2019-02-09T10:32:50.356Z,25.92
2019-02-09T10:33:50.360Z,25.73
2019-02-09T10:34:50.367Z,25.92
2019-02-09T10:35:50.372Z,25.63
2019-02-09T10:36:50.378Z,25.92
2019-02-09T10:37:50.383Z,25.73
2019-02-09T10:38:50.390Z,25.73
2019-02-09T10:39:50.395Z,25.63
2019-02-09T10:40:50.400Z,25.82
2019-02-09T10:41:50.406Z,25.63
2019-02-09T10:42:50.413Z,26.02
2019-02-09T10:43:50.416Z,25.73
2019-02-09T10:44:50.421Z,26.40
2019-02-09T10:45:50.428Z,26.31
2019-02-09T10:46:50.433Z,26.21
2019-02-09T10:48:23.647Z,26.31
2019-02-09T10:48:50.444Z,26.21
2019-02-09T10:49:50.449Z,26.31
2019-02-09T10:50:50.457Z,26.31
2019-02-09T10:51:50.462Z,26.31
2019-02-09T10:52:50.472Z,26.31
2019-02-09T10:53:50.471Z,26.40
2019-02-09T10:54:50.481Z,26.40
2019-02-09T10:55:50.483Z,26.50
2019-02-09T10:56:50.489Z,26.50
2019-02-09T10:57:50.496Z,26.79
2019-02-09T10:58:50.500Z,26.59
2019-02-09T10:59:50.504Z,26.69
2019-02-09T11:00:50.512Z,26.98
2019-02-09T11:01:50.518Z,27.27
2019-02-09T11:02:52.245Z,27.37
2019-02-09T11:03:50.527Z,27.08
2019-02-09T11:04:50.532Z,27.56
2019-02-09T11:05:50.537Z,27.66
2019-02-09T11:06:50.544Z,27.37
2019-02-09T11:07:50.548Z,27.46
2019-02-09T11:08:50.555Z,27.17
2019-02-09T11:09:50.559Z,27.66
2019-02-09T11:10:50.566Z,27.27
2019-02-09T11:11:50.571Z,27.37
2019-02-09T11:12:50.577Z,27.46
2019-02-09T11:13:50.581Z,27.46
2019-02-09T11:14:50.589Z,27.56
2019-02-09T11:15:50.593Z,27.37
2019-02-09T11:16:50.599Z,27.56
2019-02-09T11:17:50.606Z,27.75
2019-02-09T11:18:50.610Z,27.37
2019-02-09T11:19:50.616Z,27.46
2019-02-09T11:20:50.773Z,28.14
2019-02-09T11:21:50.629Z,28.04
2019-02-09T11:22:50.633Z,27.94
2019-02-09T11:23:50.638Z,28.04
2019-02-09T11:24:50.647Z,28.33
2019-02-09T11:25:50.648Z,28.23
2019-02-09T11:26:50.655Z,28.14
2019-02-09T11:27:50.985Z,28.04
2019-02-09T11:28:50.665Z,27.85
2019-02-09T11:29:50.671Z,27.85
2019-02-09T11:30:50.675Z,27.85
2019-02-09T11:31:50.680Z,27.94
2019-02-09T11:32:50.687Z,28.14
2019-02-09T11:33:50.694Z,28.04
2019-02-09T11:34:50.698Z,27.94
2019-02-09T11:35:50.704Z,27.94
2019-02-09T11:36:50.709Z,28.23
2019-02-09T11:37:50.748Z,28.33
2019-02-09T11:38:50.722Z,27.85
2019-02-09T11:39:50.726Z,28.14
2019-02-09T11:40:50.949Z,27.85
2019-02-09T11:41:50.736Z,28.04
2019-02-09T11:42:50.744Z,28.14
2019-02-09T11:43:50.753Z,27.17
2019-02-09T11:44:50.756Z,27.08
2019-02-09T11:45:50.763Z,27.75
2019-02-09T11:46:50.765Z,27.17
2019-02-09T11:47:50.769Z,27.37
2019-02-09T11:48:50.777Z,28.52
2019-02-09T11:49:50.782Z,27.85
2019-02-09T11:50:50.788Z,28.04
2019-02-09T11:51:50.796Z,28.04
2019-02-09T11:52:50.799Z,27.94
2019-02-09T11:53:50.804Z,27.85
2019-02-09T11:54:50.809Z,28.42
2019-02-09T11:55:50.815Z,28.23
2019-02-09T11:56:50.824Z,28.42
2019-02-09T11:57:50.831Z,28.23
2019-02-09T11:58:50.832Z,28.14
2019-02-09T11:59:51.138Z,27.94
2019-02-09T12:00:50.845Z,28.04
2019-02-09T12:01:51.957Z,28.31
2019-02-09T12:02:50.853Z,28.31
2019-02-09T12:03:50.860Z,28.23
2019-02-09T12:04:50.868Z,27.66
2019-02-09T12:05:50.870Z,28.14
2019-02-09T12:06:50.879Z,27.94
2019-02-09T12:07:50.881Z,27.93
2019-02-09T12:08:50.887Z,27.85
2019-02-09T12:09:50.895Z,27.85
2019-02-09T12:10:50.900Z,27.75
2019-02-09T12:11:50.905Z,27.75
2019-02-09T12:12:50.909Z,27.75
2019-02-09T12:13:55.406Z,27.75
2019-02-09T12:14:50.923Z,27.46
2019-02-09T12:15:50.925Z,27.46
2019-02-09T12:16:50.931Z,27.66
2019-02-09T12:17:50.937Z,27.56
2019-02-09T12:18:50.944Z,27.46
2019-02-09T12:19:50.948Z,27.17
2019-02-09T12:20:50.955Z,27.56
2019-02-09T12:21:50.961Z,27.66
2019-02-09T12:22:50.964Z,27.46
2019-02-09T12:23:50.970Z,27.46
2019-02-09T12:24:50.975Z,27.37
2019-02-09T12:25:50.984Z,27.56
2019-02-09T12:26:50.987Z,27.27
2019-02-09T12:27:50.993Z,27.45
2019-02-09T12:28:50.997Z,27.37
2019-02-09T12:29:51.003Z,27.17
2019-02-09T12:30:51.010Z,27.08
2019-02-09T12:31:51.016Z,26.97
2019-02-09T12:32:51.019Z,26.97
2019-02-09T12:33:51.026Z,26.98
2019-02-09T12:34:51.032Z,27.27
2019-02-09T12:35:51.037Z,27.17
2019-02-09T12:36:51.040Z,26.98
2019-02-09T12:37:51.047Z,27.26
2019-02-09T12:38:51.052Z,26.97
2019-02-09T12:39:51.062Z,27.06
2019-02-09T12:40:51.068Z,26.98
2019-02-09T12:41:51.069Z,26.97
2019-02-09T12:42:51.076Z,26.98
2019-02-09T12:43:51.087Z,26.97
2019-02-09T12:44:51.086Z,26.87
2019-02-09T12:45:51.091Z,26.87
2019-02-09T12:46:51.097Z,26.68
2019-02-09T12:47:51.105Z,26.68
2019-02-09T12:48:51.109Z,26.78
2019-02-09T12:49:51.129Z,26.87
2019-02-09T12:50:51.119Z,26.87
2019-02-09T12:51:51.124Z,26.68
2019-02-09T12:52:51.130Z,26.68